Time;durP1;ratioP1;P1;durP2;ratioP2;P2;SDS_P1;SDS_P2;PMS_P1;PMS_P2;Temp;Humidity;BMP_temperature;BMP_pressure;BME280_temperature;BME280_humidity;BME280_pressure;Samples;Min_cycle;Max_cycle;Signal;HPM_P1;HPM_P2
2021/04/14 00:00:23;;;;;;;10.80;2.05;;;;;;;4.15;63.35;101062.54;114672;1202;23122;-54
2021/04/14 00:03:19;;;;;;;12.27;1.73;;;;;;;4.14;63.41;101062.96;114564;1202;26182;-55
2021/04/14 00:05:49;;;;;;;12.63;2.03;;;;;;;4.13;63.44;101064.14;118604;1199;23516;-57
2021/04/14 00:08:18;;;;;;;15.85;2.15;;;;;;;4.12;63.33;101063.36;115133;1200;23253;-55
2021/04/14 00:10:48;;;;;;;16.60;2.53;;;;;;;4.14;63.42;101066.48;114878;1203;23125;-52
2021/04/14 00:13:20;;;;;;;12.20;2.10;;;;;;;4.15;63.47;101058.98;114727;1201;23265;-55
2021/04/14 00:15:51;;;;;;;17.10;3.00;;;;;;;4.15;63.41;101065.30;116554;1202;23154;-55
2021/04/14 00:18:21;;;;;;;11.47;2.07;;;;;;;4.15;63.13;101057.02;114730;1202;26134;-54
2021/04/14 00:20:51;;;;;;;14.70;2.25;;;;;;;4.15;63.37;101057.02;114801;1203;23326;-52
2021/04/14 00:23:22;;;;;;;10.93;1.50;;;;;;;4.16;63.16;101043.98;114808;1203;23237;-54
2021/04/14 00:25:52;;;;;;;13.27;1.90;;;;;;;4.15;63.21;101047.94;114887;1203;23131;-52
2021/04/14 00:28:24;;;;;;;17.20;2.50;;;;;;;4.15;63.60;101059.78;114708;1202;23154;-55
2021/04/14 00:30:54;;;;;;;14.95;2.00;;;;;;;4.15;63.60;101045.17;114707;1203;23150;-54
2021/04/14 00:33:22;;;;;;;12.78;1.90;;;;;;;4.14;63.56;101046.38;114692;1202;23401;-56
2021/04/14 00:35:51;;;;;;;12.95;1.80;;;;;;;4.12;63.95;101051.55;114924;1203;24755;-54
2021/04/14 00:38:21;;;;;;;13.70;2.45;;;;;;;4.09;63.79;101053.15;114811;1202;26089;-54
2021/04/14 00:40:56;;;;;;;17.05;2.50;;;;;;;4.08;63.75;101038.55;114677;1200;23135;-55
2021/04/14 00:43:27;;;;;;;19.63;2.40;;;;;;;4.06;63.66;101049.23;114760;1202;23135;-53
2021/04/14 00:45:56;;;;;;;15.40;2.30;;;;;;;4.06;64.05;101049.23;114822;1203;23140;-52
2021/04/14 00:48:25;;;;;;;14.10;2.10;;;;;;;4.07;64.17;101044.49;114803;1200;23121;-56
2021/04/14 00:50:55;;;;;;;11.95;2.15;;;;;;;4.05;64.08;101047.68;114684;1200;24347;-52
2021/04/14 00:53:24;;;;;;;13.65;2.75;;;;;;;4.04;64.20;101048.08;115065;1200;24628;-54
2021/04/14 00:55:53;;;;;;;14.65;2.80;;;;;;;4.01;64.30;101048.92;114655;1202;23118;-53
2021/04/14 00:58:22;;;;;;;16.30;2.85;;;;;;;4.00;64.65;101052.86;114682;1203;23147;-56
2021/04/14 01:00:53;;;;;;;11.90;2.55;;;;;;;3.98;64.26;101053.28;114776;1203;27239;-54
2021/04/14 01:03:24;;;;;;;19.17;2.60;;;;;;;3.96;64.36;101054.89;114774;1203;23832;-54
2021/04/14 01:05:56;;;;;;;19.70;3.40;;;;;;;3.96;64.44;101063.97;114665;1200;23131;-52
2021/04/14 01:08:25;;;;;;;12.50;1.95;;;;;;;3.95;64.64;101062.39;114987;1199;23160;-52
2021/04/14 01:10:54;;;;;;;17.27;2.50;;;;;;;3.93;64.72;101064.78;114627;1200;27205;-56
2021/04/14 01:13:23;;;;;;;12.50;2.40;;;;;;;3.93;64.62;101064.02;114729;1202;23148;-55
2021/04/14 01:15:52;;;;;;;12.30;2.20;;;;;;;3.91;64.68;101061.66;114658;1200;23134;-54
2021/04/14 01:18:23;;;;;;;16.20;2.17;;;;;;;3.90;64.88;101068.39;114807;1202;23148;-56
2021/04/14 01:20:53;;;;;;;11.35;2.25;;;;;;;3.89;64.85;101064.05;114845;1202;23131;-54
2021/04/14 01:23:25;;;;;;;13.23;2.20;;;;;;;3.88;64.87;101070.78;114878;1203;23158;-54
2021/04/14 01:25:54;;;;;;;15.25;2.05;;;;;;;3.87;64.68;101069.20;114830;1203;23132;-54
2021/04/14 01:28:25;;;;;;;13.40;2.15;;;;;;;3.87;64.73;101066.44;114724;1203;23123;-54
2021/04/14 01:30:55;;;;;;;13.30;1.95;;;;;;;3.85;65.06;101077.13;114911;1200;23189;-53
2021/04/14 01:33:26;;;;;;;13.08;2.48;;;;;;;3.86;65.19;101069.63;114862;1202;23155;-54
2021/04/14 01:35:54;;;;;;;;;;;;;;;3.85;64.83;101063.31;114706;1206;23332;-52
2021/04/14 01:38:23;;;;;;;13.00;1.70;;;;;;;3.84;65.27;101063.73;114805;1202;23212;-56
2021/04/14 01:40:52;;;;;;;16.30;2.20;;;;;;;3.83;65.25;101065.70;114718;1202;23112;-56
2021/04/14 01:43:21;;;;;;;15.00;2.20;;;;;;;3.84;65.06;101066.49;114780;1202;23158;-55
2021/04/14 01:45:50;;;;;;;13.97;2.20;;;;;;;3.83;65.45;101057.42;114736;1201;23151;-56
2021/04/14 01:48:20;;;;;;;14.80;2.70;;;;;;;3.83;65.62;101062.94;114693;1200;26261;-56
2021/04/14 01:50:50;;;;;;;12.13;1.83;;;;;;;3.83;65.55;101068.47;114952;1202;23249;-56
2021/04/14 01:53:21;;;;;;;15.55;1.95;;;;;;;3.81;65.73;101062.57;114920;1202;23158;-54
2021/04/14 01:55:52;;;;;;;13.05;2.20;;;;;;;3.81;65.49;101059.81;114735;1202;23121;-56
2021/04/14 01:58:22;;;;;;;18.17;2.67;;;;;;;3.81;65.71;101059.02;114747;1202;23587;-55
2021/04/14 02:00:55;;;;;;;12.17;2.50;;;;;;;3.82;65.67;101055.08;114746;1203;28291;-52
2021/04/14 02:03:26;;;;;;;14.20;2.70;;;;;;;3.80;65.76;101058.27;114733;1202;23125;-53
2021/04/14 02:05:55;;;;;;;12.50;1.80;;;;;;;3.80;66.09;101063.78;114726;1203;23130;-58
2021/04/14 02:08:25;;;;;;;13.85;2.35;;;;;;;3.80;65.96;101063.00;114958;1203;23272;-52
2021/04/14 02:10:54;;;;;;;14.27;2.60;;;;;;;3.79;65.90;101055.89;114916;1202;23133;-53
2021/04/14 02:13:24;;;;;;;12.90;1.95;;;;;;;3.78;66.01;101060.66;114622;1203;23289;-55
2021/04/14 02:15:54;;;;;;;15.00;2.03;;;;;;;3.79;65.91;101064.17;114683;1203;23127;-56
2021/04/14 02:18:22;;;;;;;13.50;2.35;;;;;;;3.80;65.82;101069.31;114650;1203;23211;-55
2021/04/14 02:20:52;;;;;;;14.67;2.10;;;;;;;3.80;65.56;101068.52;114617;1202;27460;-55
2021/04/14 02:23:22;;;;;;;10.53;2.30;;;;;;;3.79;65.83;101066.94;114615;1202;27227;-55
2021/04/14 02:25:51;;;;;;;;;;;;;;;3.79;66.00;101075.22;114749;1206;24344;-56
2021/04/14 02:28:19;;;;;;;12.10;1.63;;;;;;;3.77;66.08;101064.59;114654;1202;21604;-54
2021/04/14 02:30:48;;;;;;;9.55;1.60;;;;;;;3.76;66.05;101071.33;114664;1202;23131;-56
2021/04/14 02:33:19;;;;;;;11.40;1.83;;;;;;;3.76;66.25;101070.55;114656;1200;23167;-55
2021/04/14 02:35:49;;;;;;;11.60;1.63;;;;;;;3.74;66.10;101068.20;114678;1202;27448;-52
2021/04/14 02:38:18;;;;;;;9.38;1.55;;;;;;;3.74;66.23;101068.20;114753;1202;26118;-53
2021/04/14 02:40:48;;;;;;;15.27;2.00;;;;;;;3.74;66.21;101065.44;114687;1202;24811;-56
2021/04/14 02:43:17;;;;;;;11.07;1.83;;;;;;;3.74;66.34;101068.20;114804;1202;23140;-53
2021/04/14 02:45:45;;;;;;;13.70;1.95;;;;;;;3.72;66.43;101076.11;114667;1202;26003;-53
2021/04/14 02:48:15;;;;;;;12.25;1.40;;;;;;;3.71;66.23;101076.50;114665;1200;25994;-54
2021/04/14 02:50:43;;;;;;;6.70;1.15;;;;;;;3.69;66.54;101073.38;114670;1203;23124;-56
2021/04/14 02:53:12;;;;;;;9.25;1.50;;;;;;;3.67;66.58;101078.52;114634;1200;26165;-54
2021/04/14 02:55:41;;;;;;;9.05;1.35;;;;;;;3.65;66.55;101062.38;114594;1202;23253;-55
2021/04/14 02:58:10;;;;;;;13.00;2.00;;;;;;;3.66;66.66;101068.69;114616;1203;23359;-55
2021/04/14 03:00:40;;;;;;;14.15;1.50;;;;;;;3.67;66.67;101065.52;114698;1202;26069;-53
2021/04/14 03:03:08;;;;;;;6.70;1.20;;;;;;;3.68;67.45;101067.09;114678;1202;23124;-54
2021/04/14 03:05:37;;;;;;;6.47;1.17;;;;;;;3.67;67.18;101073.80;114653;1202;26087;-52
2021/04/14 03:08:07;;;;;;;12.20;1.60;;;;;;;3.68;67.26;101074.59;114801;1203;27460;-58
2021/04/14 03:10:36;;;;;;;8.80;1.35;;;;;;;3.65;67.15;101067.91;114827;1203;26007;-52
2021/04/14 03:13:07;;;;;;;9.10;1.30;;;;;;;3.65;67.16;101067.91;114624;1203;23117;-54
2021/04/14 03:15:39;;;;;;;9.55;1.60;;;;;;;3.66;67.06;101069.45;114642;1203;23111;-55
2021/04/14 03:18:08;;;;;;;7.60;1.20;;;;;;;3.67;67.37;101073.80;114733;1202;23124;-54
2021/04/14 03:20:37;;;;;;;8.60;1.53;;;;;;;3.67;67.58;101064.72;114829;1200;23264;-53
2021/04/14 03:23:06;;;;;;;10.10;1.50;;;;;;;3.67;67.79;101071.03;114649;1203;23240;-56
2021/04/14 03:25:35;;;;;;;8.20;1.50;;;;;;;3.68;67.47;101071.83;114766;1202;24800;-55
2021/04/14 03:28:05;;;;;;;8.10;1.60;;;;;;;3.67;67.67;101062.75;114645;1202;23331;-53
2021/04/14 03:30:34;;;;;;;10.40;1.63;;;;;;;3.66;67.90;101063.17;114704;1202;23266;-53
2021/04/14 03:33:04;;;;;;;15.40;2.15;;;;;;;3.64;67.73;101065.56;114746;1203;26211;-55
2021/04/14 03:35:33;;;;;;;10.13;1.53;;;;;;;3.62;67.86;101060.42;114642;1202;23130;-55
2021/04/14 03:38:02;;;;;;;10.25;1.55;;;;;;;3.59;67.91;101058.50;114798;1202;23143;-52
2021/04/14 03:40:32;;;;;;;10.95;1.55;;;;;;;3.57;68.30;101057.34;114699;1203;23273;-55
2021/04/14 03:43:01;;;;;;;13.23;1.70;;;;;;;3.51;68.17;101056.23;114992;1200;25429;-51
2021/04/14 03:45:36;;;;;;;12.40;1.60;;;;;;;3.47;68.17;101064.56;114834;1202;26134;-55
2021/04/14 03:48:06;;;;;;;12.65;1.60;;;;;;;3.44;68.01;101061.81;114636;1203;23135;-52
2021/04/14 03:50:36;;;;;;;11.05;2.00;;;;;;;3.39;68.29;101054.80;114746;1203;23230;-52
2021/04/14 03:53:13;;;;;;;10.55;1.45;;;;;;;3.34;68.29;101057.98;114670;1202;23195;-53
2021/04/14 03:55:42;;;;;;;11.90;2.80;;;;;;;3.31;68.33;101060.80;114635;1202;25968;-55
2021/04/14 03:58:11;;;;;;;9.20;1.60;;;;;;;3.28;68.47;101059.63;114957;1200;23157;-56
2021/04/14 04:00:40;;;;;;;12.60;1.90;;;;;;;3.24;68.58;101051.39;114603;1203;24797;-53
2021/04/14 04:03:08;;;;;;;12.20;2.00;;;;;;;3.23;68.57;101058.09;114628;1202;26291;-55
2021/04/14 04:05:37;;;;;;;11.07;1.60;;;;;;;3.21;68.70;101059.69;114642;1203;23120;-56
2021/04/14 04:08:07;;;;;;;13.90;2.10;;;;;;;3.16;68.74;101068.42;114725;1202;23141;-55
2021/04/14 04:10:35;;;;;;;13.57;1.60;;;;;;;3.12;68.80;101062.16;114684;1203;23152;-59
2021/04/14 04:13:05;;;;;;;14.30;2.50;;;;;;;3.11;68.94;101071.61;114665;1202;23138;-58
2021/04/14 04:15:34;;;;;;;10.50;1.80;;;;;;;3.09;68.94;101068.48;114824;1202;23124;-58
2021/04/14 04:18:03;;;;;;;11.10;1.90;;;;;;;3.07;69.09;101066.14;114721;1203;27208;-57
2021/04/14 04:20:32;;;;;;;14.90;2.00;;;;;;;3.07;69.10;101070.86;114838;1203;23276;-52
2021/04/14 04:23:02;;;;;;;14.10;1.80;;;;;;;3.05;69.21;101076.80;114993;1200;23145;-53
2021/04/14 04:25:32;;;;;;;12.90;2.10;;;;;;;3.05;69.51;101076.80;114707;1203;23111;-54
2021/04/14 04:28:01;;;;;;;9.83;1.63;;;;;;;3.04;69.41;101077.97;114635;1202;23134;-57
2021/04/14 04:30:31;;;;;;;14.05;2.10;;;;;;;3.03;69.58;101081.15;114728;1202;26257;-54
2021/04/14 04:33:01;;;;;;;13.03;2.00;;;;;;;3.02;69.50;101083.12;114763;1202;23269;-53
2021/04/14 04:35:31;;;;;;;18.70;2.20;;;;;;;3.04;69.49;101082.73;114738;1199;25993;-53
2021/04/14 04:38:00;;;;;;;10.80;1.70;;;;;;;3.06;69.76;101092.14;114957;1203;23186;-56
2021/04/14 04:40:29;;;;;;;11.73;1.77;;;;;;;3.04;69.67;101088.25;114632;1202;24938;-60
2021/04/14 04:42:58;;;;;;;12.00;1.83;;;;;;;3.01;70.13;101086.29;115072;1202;23266;-59
2021/04/14 04:45:30;;;;;;;12.90;2.15;;;;;;;2.98;70.01;101093.39;114661;1202;23125;-60
2021/04/14 04:48:00;;;;;;;11.20;1.70;;;;;;;2.98;70.16;101090.64;114821;1202;23158;-60
2021/04/14 04:50:28;;;;;;;;;;;;;;;2.98;70.27;101089.88;115064;1204;23189;-61
2021/04/14 04:52:59;;;;;;;11.30;1.80;;;;;;;2.97;70.76;101094.60;114996;1202;21678;-62
2021/04/14 04:55:29;;;;;;;16.35;1.70;;;;;;;2.97;70.82;101099.33;114892;1203;23128;-61
2021/04/14 04:57:57;;;;;;;8.30;1.45;;;;;;;2.97;70.43;101099.33;114808;1202;23228;-62
2021/04/14 05:00:27;;;;;;;7.90;1.40;;;;;;;2.97;70.45;101099.33;114736;1202;27239;-60
2021/04/14 05:02:56;;;;;;;6.30;1.20;;;;;;;2.98;70.57;101100.91;114880;1202;23589;-61
2021/04/14 05:05:29;;;;;;;11.20;1.70;;;;;;;2.98;70.92;101103.67;114782;1203;23125;-60
2021/04/14 05:07:58;;;;;;;8.37;1.20;;;;;;;2.98;70.50;101107.19;115024;1201;23132;-61
2021/04/14 05:10:30;;;;;;;11.63;1.60;;;;;;;3.00;71.05;101113.08;114752;1202;26137;-60
2021/04/14 05:12:59;;;;;;;12.70;1.50;;;;;;;3.02;70.96;101107.18;114840;1202;23124;-59
2021/04/14 05:15:30;;;;;;;9.43;1.30;;;;;;;3.04;71.02;101111.08;114745;1200;23124;-60
2021/04/14 05:18:00;;;;;;;11.70;1.70;;;;;;;3.05;70.98;101109.11;114719;1203;23157;-60
2021/04/14 05:20:29;;;;;;;7.60;1.33;;;;;;;3.07;70.77;101113.03;114692;1200;27371;-60
2021/04/14 05:22:59;;;;;;;13.60;1.30;;;;;;;3.08;70.67;101113.83;114905;1202;23146;-62
2021/04/14 05:25:31;;;;;;;11.47;1.30;;;;;;;3.10;70.96;101103.92;115126;1202;23212;-60
2021/04/14 05:28:04;;;;;;;9.50;1.50;;;;;;;3.11;70.77;101110.23;114901;1202;23132;-63
2021/04/14 05:30:33;;;;;;;9.10;1.20;;;;;;;3.13;70.90;101110.61;114833;1202;23131;-60
2021/04/14 05:33:02;;;;;;;14.00;1.30;;;;;;;3.15;70.97;101122.81;114695;1202;27239;-62
2021/04/14 05:35:31;;;;;;;7.40;1.25;;;;;;;3.16;71.03;101116.13;114680;1203;25589;-62
2021/04/14 05:38:00;;;;;;;15.30;1.60;;;;;;;3.18;70.69;101122.02;114946;1202;23228;-61
2021/04/14 05:40:28;;;;;;;15.77;1.30;;;;;;;3.23;70.95;101120.77;114732;1202;27229;-63
2021/04/14 05:42:57;;;;;;;10.10;1.20;;;;;;;3.25;70.93;101121.14;114624;1198;23334;-61
2021/04/14 05:45:29;;;;;;;13.40;1.70;;;;;;;3.28;70.90;101123.10;114959;1202;24097;-61
2021/04/14 05:47:59;;;;;;;10.20;1.75;;;;;;;3.30;71.07;101115.20;114877;1203;23132;-62
2021/04/14 05:50:28;;;;;;;11.50;1.80;;;;;;;3.32;70.79;101114.78;114747;1203;26372;-61
2021/04/14 05:52:57;;;;;;;8.30;1.30;;;;;;;3.34;70.90;101118.70;114570;1202;26608;-62
2021/04/14 05:55:27;;;;;;;10.63;1.63;;;;;;;3.38;70.87;101113.94;114661;1203;26150;-63
2021/04/14 05:57:57;;;;;;;8.90;1.40;;;;;;;3.40;70.84;101117.06;114766;1202;23147;-62
2021/04/14 06:00:28;;;;;;;15.70;1.70;;;;;;;3.42;70.67;101117.44;114891;1203;24341;-62
2021/04/14 06:02:58;;;;;;;17.60;1.50;;;;;;;3.43;70.80;101110.74;114837;1203;23154;-59
2021/04/14 06:05:27;;;;;;;13.37;1.73;;;;;;;3.46;70.71;101117.39;114846;1200;26009;-59
2021/04/14 06:07:56;;;;;;;15.27;1.77;;;;;;;3.50;70.85;101118.17;115154;1203;24759;-62
2021/04/14 06:10:26;;;;;;;12.95;1.05;;;;;;;3.52;70.74;101119.30;114990;1199;23120;-60
2021/04/14 06:12:56;;;;;;;13.80;1.80;;;;;;;3.57;70.66;101113.35;115021;1200;24967;-59
2021/04/14 06:15:28;;;;;;;9.43;1.20;;;;;;;3.60;70.88;101114.52;114699;1202;23125;-63
2021/04/14 06:17:58;;;;;;;13.30;1.80;;;;;;;3.60;70.54;101112.52;114962;1202;23124;-61
2021/04/14 06:20:29;;;;;;;10.80;1.60;;;;;;;3.63;70.61;101117.23;115214;1203;23263;-62
2021/04/14 06:22:59;;;;;;;8.70;1.10;;;;;;;3.64;70.49;101109.73;114997;1203;23300;-60
2021/04/14 06:25:32;;;;;;;10.85;1.40;;;;;;;3.68;70.70;101116.80;115004;1199;23127;-62
2021/04/14 06:28:04;;;;;;;13.00;1.60;;;;;;;3.66;70.58;101113.63;114670;1202;25806;-61
2021/04/14 06:30:33;;;;;;;9.10;1.20;;;;;;;3.64;70.29;101116.02;114621;1203;23134;-61
2021/04/14 06:33:03;;;;;;;8.30;1.10;;;;;;;3.58;70.26;101112.14;114715;1202;26155;-62
2021/04/14 06:35:32;;;;;;;10.55;1.65;;;;;;;3.56;70.66;101120.05;114933;1202;24779;-62
2021/04/14 06:38:04;;;;;;;11.35;1.35;;;;;;;3.56;70.56;101106.25;114765;1202;23157;-62
2021/04/14 06:41:02;;;;;;;11.10;1.40;;;;;;;3.58;71.11;101109.38;114847;1200;23125;-62
2021/04/14 06:43:42;;;;;;;7.75;1.00;;;;;;;3.58;70.69;101109.38;114966;1202;27844;-62
2021/04/14 06:46:15;;;;;;;11.87;1.13;;;;;;;3.63;70.82;101114.47;115047;1202;27466;-62
2021/04/14 06:48:57;;;;;;;14.10;1.67;;;;;;;3.64;70.65;101112.50;114706;1202;27148;-60
2021/04/14 06:51:34;;;;;;;8.60;1.80;;;;;;;3.62;70.56;101115.65;115054;1201;23269;-60
2021/04/14 06:54:16;;;;;;;10.00;1.50;;;;;;;3.65;70.74;101114.05;114797;1203;23132;-61
2021/04/14 06:56:51;;;;;;;8.20;1.30;;;;;;;3.65;70.66;101114.05;114903;1203;23124;-62
2021/04/14 06:59:23;;;;;;;11.95;1.45;;;;;;;3.67;70.98;101112.45;114684;1200;26294;-61
2021/04/14 07:01:58;;;;;;;12.40;1.50;;;;;;;3.70;71.66;101117.16;114785;1200;23167;-62
2021/04/14 07:04:32;;;;;;;9.15;1.30;;;;;;;3.71;71.08;101115.95;114925;1199;23130;-62
2021/04/14 07:07:05;;;;;;;10.20;1.90;;;;;;;3.74;70.93;101130.92;114840;1200;23141;-61
2021/04/14 07:09:37;;;;;;;10.20;1.50;;;;;;;3.77;70.53;101127.33;114995;1203;26430;-61
2021/04/14 07:12:11;;;;;;;15.90;1.30;;;;;;;3.78;70.56;101124.17;114725;1203;23144;-62
2021/04/14 07:14:40;;;;;;;8.90;1.50;;;;;;;3.83;70.78;101117.39;114722;1202;23295;-61
2021/04/14 07:17:20;;;;;;;12.13;1.40;;;;;;;3.89;70.81;101127.58;114749;1200;26134;-58
2021/04/14 07:20:15;;;;;;;14.80;1.50;;;;;;;3.94;70.58;101121.62;114736;1202;24762;-62
2021/04/14 07:22:59;;;;;;;14.73;1.27;;;;;;;3.98;70.16;101114.06;114935;1199;23148;-62
2021/04/14 07:25:36;;;;;;;12.40;2.10;;;;;;;4.04;70.54;101115.17;115102;1202;23147;-62
2021/04/14 07:28:17;;;;;;;16.50;1.90;;;;;;;4.09;70.45;101116.70;115155;1202;26246;-62
2021/04/14 07:30:52;;;;;;;14.13;1.50;;;;;;;4.08;70.55;101113.15;114691;1203;23127;-63
2021/04/14 07:33:29;;;;;;;14.05;1.85;;;;;;;4.08;70.32;101118.67;114727;1203;23154;-63
2021/04/14 07:36:07;;;;;;;13.35;1.40;;;;;;;4.07;70.46;101108.84;114589;1199;26866;-63
2021/04/14 07:38:57;;;;;;;10.80;1.10;;;;;;;4.08;70.11;101123.41;115012;1202;27201;-62
2021/04/14 07:41:38;;;;;;;10.10;1.30;;;;;;;4.08;70.18;101104.86;115266;1202;24609;-63
2021/04/14 07:44:15;;;;;;;8.73;1.50;;;;;;;4.15;70.32;101111.48;114773;1203;23132;-62
2021/04/14 07:46:48;;;;;;;12.90;1.40;;;;;;;4.24;70.76;101114.55;114875;1200;23146;-63
2021/04/14 07:49:18;;;;;;;13.53;1.50;;;;;;;4.28;70.09;101109.75;115003;1201;27255;-62
2021/04/14 07:51:48;;;;;;;14.05;0.85;;;;;;;4.33;70.39;101110.06;114786;1202;23156;-62
2021/04/14 07:54:22;;;;;;;12.10;1.50;;;;;;;4.34;69.80;101097.82;114829;1202;24481;-63
2021/04/14 07:56:56;;;;;;;11.60;1.65;;;;;;;4.43;70.20;101109.13;114688;1198;24606;-62
2021/04/14 07:59:30;;;;;;;12.10;2.40;;;;;;;4.52;70.75;101103.08;114872;1200;23272;-62
2021/04/14 08:02:02;;;;;;;9.30;1.60;;;;;;;4.62;70.28;101105.70;114798;1203;23163;-62
2021/04/14 08:04:36;;;;;;;14.55;1.70;;;;;;;4.68;69.56;101114.30;114803;1202;27485;-62
2021/04/14 08:07:14;;;;;;;10.10;1.20;;;;;;;4.69;69.72;101104.81;114829;1200;24810;-62
2021/04/14 08:09:55;;;;;;;9.95;1.10;;;;;;;4.74;69.39;101102.34;114946;1200;23576;-61
2021/04/14 08:12:33;;;;;;;13.17;1.10;;;;;;;4.83;70.05;101104.59;114866;1203;24915;-63
2021/04/14 08:15:16;;;;;;;17.95;1.70;;;;;;;4.93;69.16;101106.41;114770;1202;23131;-61
2021/04/14 08:17:53;;;;;;;12.45;1.30;;;;;;;5.00;69.23;101106.30;115091;1200;23128;-62
2021/04/14 08:20:30;;;;;;;14.30;1.60;;;;;;;5.03;68.99;101099.91;114935;1200;27306;-62
2021/04/14 08:23:13;;;;;;;10.40;1.60;;;;;;;5.11;69.29;101090.28;114946;1200;23124;-62
2021/04/14 08:25:48;;;;;;;9.65;1.40;;;;;;;5.25;69.50;101100.34;114845;1200;26494;-62
2021/04/14 08:28:28;;;;;;;13.05;1.45;;;;;;;5.40;69.17;101096.89;114822;1202;23124;-62
2021/04/14 08:31:13;;;;;;;7.35;1.00;;;;;;;5.46;67.71;101095.19;114990;1202;23154;-69
2021/04/14 08:33:43;;;;;;;10.00;1.15;;;;;;;5.45;67.95;101093.64;115051;1202;23128;-64
2021/04/14 08:36:23;;;;;;;11.50;1.37;;;;;;;5.43;68.64;101089.73;114964;1203;23135;-64
2021/04/14 08:38:52;;;;;;;;;;;;;;;5.51;68.72;101086.41;114853;1206;23150;-63
2021/04/14 08:41:29;;;;;;;10.25;1.30;;;;;;;5.56;68.01;101087.91;114942;1199;21749;-62
2021/04/14 08:44:10;;;;;;;13.15;1.35;;;;;;;5.54;68.11;101091.11;115170;1199;23124;-62
2021/04/14 08:46:41;;;;;;;12.70;1.27;;;;;;;5.55;66.75;101100.17;115163;1200;23684;-61
2021/04/14 08:49:14;;;;;;;10.15;1.30;;;;;;;5.51;67.40;101082.84;115172;1200;23124;-61
2021/04/14 08:51:46;;;;;;;11.83;1.43;;;;;;;5.49;66.95;101091.59;115249;1199;23124;-61
2021/04/14 08:54:18;;;;;;;11.73;1.20;;;;;;;5.41;67.34;101081.06;115177;1199;25382;-60
2021/04/14 08:56:49;;;;;;;9.45;1.95;;;;;;;5.39;66.93;101077.94;115424;1203;27851;-61
2021/04/14 08:59:19;;;;;;;7.55;0.90;;;;;;;5.40;66.63;101090.59;115234;1199;23143;-61
2021/04/14 09:01:49;;;;;;;10.60;1.50;;;;;;;5.42;66.60;101080.63;115312;1203;23172;-61
2021/04/14 09:04:20;;;;;;;9.98;1.10;;;;;;;5.45;66.99;101079.01;114821;1200;23127;-61
2021/04/14 09:06:52;;;;;;;11.10;1.40;;;;;;;5.52;66.68;101079.67;115283;1202;27256;-61
2021/04/14 09:09:23;;;;;;;9.05;1.55;;;;;;;5.51;66.37;101074.53;114800;1200;23154;-61
2021/04/14 09:12:04;;;;;;;5.10;0.90;;;;;;;5.52;65.72;101079.67;114932;1199;23386;-62
2021/04/14 09:14:34;;;;;;;7.90;0.90;;;;;;;5.49;64.89;101074.19;114758;1202;23299;-61
2021/04/14 09:17:05;;;;;;;11.43;0.93;;;;;;;5.52;66.25;101074.14;114810;1199;23285;-62
2021/04/14 09:19:36;;;;;;;8.55;1.75;;;;;;;5.53;65.18;101063.81;114844;1200;23124;-62
2021/04/14 09:22:22;;;;;;;10.50;1.20;;;;;;;5.52;65.35;101060.29;114912;1200;27236;-62
2021/04/14 09:24:53;;;;;;;5.75;0.80;;;;;;;5.60;65.26;101058.16;114976;1199;26134;-61
2021/04/14 09:27:31;;;;;;;9.63;1.00;;;;;;;5.60;64.12;101056.17;114888;1202;23297;-61
2021/04/14 09:30:31;;;;;;;7.27;1.10;;;;;;;5.60;65.38;101050.63;114655;1202;23140;-60
2021/04/14 09:33:13;;;;;;;7.70;0.90;;;;;;;5.58;64.39;101041.18;115042;1202;27333;-60
2021/04/14 09:35:55;;;;;;;5.75;0.85;;;;;;;5.57;64.90;101043.16;115153;1200;23141;-60
2021/04/14 09:38:33;;;;;;;10.90;0.83;;;;;;;5.58;63.27;101057.80;114805;1203;23151;-60
2021/04/14 09:41:16;;;;;;;7.35;1.00;;;;;;;5.53;63.82;101056.30;114897;1200;23121;-60
2021/04/14 09:43:46;;;;;;;6.10;0.90;;;;;;;5.47;63.52;101058.00;114866;1200;25996;-60
2021/04/14 09:46:29;;;;;;;7.03;1.00;;;;;;;5.41;63.44;101051.39;114918;1202;26032;-60
2021/04/14 09:49:09;;;;;;;8.53;1.30;;;;;;;5.41;64.92;101051.39;114977;1202;23122;-60
2021/04/14 09:51:41;;;;;;;7.10;0.80;;;;;;;5.46;64.53;101050.13;114796;1199;23121;-61
2021/04/14 09:54:18;;;;;;;11.60;1.00;;;;;;;5.52;64.18;101045.66;114626;1202;26134;-61
2021/04/14 09:56:52;;;;;;;8.20;0.80;;;;;;;5.56;63.90;101052.69;114932;1202;23394;-62
2021/04/14 09:59:26;;;;;;;7.07;1.10;;;;;;;5.62;63.70;101045.45;114772;1202;23155;-61
2021/04/14 10:02:00;;;;;;;9.30;1.20;;;;;;;5.67;62.90;101061.55;114833;1200;24060;-61
2021/04/14 10:04:29;;;;;;;10.45;0.90;;;;;;;5.67;63.47;101044.94;114972;1203;24761;-61
2021/04/14 10:07:04;;;;;;;8.95;0.85;;;;;;;5.66;64.23;101050.91;114970;1202;23140;-62
2021/04/14 10:09:37;;;;;;;9.27;1.47;;;;;;;5.68;64.45;101035.43;114725;1203;23140;-61
2021/04/14 10:12:15;;;;;;;7.17;0.90;;;;;;;5.68;64.09;101045.72;114980;1202;25607;-60
2021/04/14 10:14:48;;;;;;;7.43;0.93;;;;;;;5.65;63.39;101046.56;114880;1200;24762;-61
2021/04/14 10:17:20;;;;;;;6.95;0.95;;;;;;;5.61;63.25;101043.87;114853;1200;23124;-61
2021/04/14 10:19:54;;;;;;;8.10;1.00;;;;;;;5.61;63.72;101046.64;115053;1202;23192;-61
2021/04/14 10:22:29;;;;;;;9.95;1.00;;;;;;;5.62;63.10;101041.89;114631;1203;23157;-60
2021/04/14 10:25:04;;;;;;;5.60;1.30;;;;;;;5.70;62.85;101021.14;114796;1202;26294;-62
2021/04/14 10:27:34;;;;;;;11.85;1.05;;;;;;;5.80;63.18;101039.53;114879;1202;23131;-61
2021/04/14 10:30:08;;;;;;;9.63;0.95;;;;;;;5.91;63.64;101031.03;114919;1199;23192;-61
2021/04/14 10:32:37;;;;;;;7.90;1.10;;;;;;;6.00;63.01;101032.00;114804;1202;27448;-62
2021/04/14 10:35:12;;;;;;;10.15;0.95;;;;;;;6.01;62.68;101022.49;114707;1200;23128;-61
2021/04/14 10:37:46;;;;;;;5.55;1.00;;;;;;;5.98;62.31;101028.88;114761;1202;27249;-60
2021/04/14 10:40:20;;;;;;;10.70;1.00;;;;;;;5.93;62.55;101018.31;114957;1203;24782;-60
2021/04/14 10:42:51;;;;;;;12.50;1.10;;;;;;;5.97;62.72;101021.79;114805;1200;23141;-61
2021/04/14 10:45:22;;;;;;;6.70;0.90;;;;;;;6.00;62.77;101020.16;114854;1202;23151;-61
2021/04/14 10:47:55;;;;;;;5.35;1.00;;;;;;;6.01;62.27;101013.39;114843;1203;23192;-60
2021/04/14 10:50:27;;;;;;;8.60;1.20;;;;;;;6.02;62.67;101020.51;115023;1202;23129;-60
2021/04/14 10:53:04;;;;;;;8.80;1.40;;;;;;;5.99;61.06;101015.81;114830;1199;23128;-60
2021/04/14 10:55:38;;;;;;;11.15;1.60;;;;;;;5.95;61.76;101010.35;114825;1202;27345;-59
2021/04/14 10:58:08;;;;;;;7.10;0.80;;;;;;;5.91;61.41;101009.65;114843;1200;23196;-61
2021/04/14 11:00:40;;;;;;;7.73;1.20;;;;;;;5.90;61.83;101008.08;115050;1202;24729;-62
2021/04/14 11:03:10;;;;;;;10.47;1.07;;;;;;;5.96;61.51;101008.37;114939;1202;23193;-62
2021/04/14 11:05:46;;;;;;;7.75;1.20;;;;;;;6.01;61.59;101013.39;114819;1202;25971;-61
2021/04/14 11:08:17;;;;;;;10.70;1.10;;;;;;;6.08;61.70;101019.58;115100;1198;25996;-61
2021/04/14 11:10:46;;;;;;;8.60;1.05;;;;;;;6.08;60.58;101027.11;115037;1203;23214;-61
2021/04/14 11:13:19;;;;;;;7.30;1.10;;;;;;;6.04;61.50;101009.77;114888;1203;23213;-61
2021/04/14 11:15:50;;;;;;;9.90;1.20;;;;;;;6.04;62.11;101015.31;114978;1200;26073;-60
2021/04/14 11:18:29;;;;;;;8.80;1.20;;;;;;;6.01;61.42;101002.30;115043;1202;25967;-61
2021/04/14 11:21:06;;;;;;;8.63;1.60;;;;;;;5.98;61.43;101015.02;114805;1203;23154;-61
2021/04/14 11:23:38;;;;;;;8.67;1.63;;;;;;;6.00;61.74;101009.07;114746;1199;23154;-61
2021/04/14 11:26:13;;;;;;;10.70;1.40;;;;;;;6.03;60.31;101011.76;114873;1203;26198;-61
2021/04/14 11:28:47;;;;;;;6.37;1.13;;;;;;;6.03;61.07;101002.66;114903;1199;23132;-62
2021/04/14 11:31:31;;;;;;;6.60;1.00;;;;;;;6.14;61.14;101014.30;114648;1202;23131;-60
2021/04/14 11:34:02;;;;;;;6.53;1.30;;;;;;;6.19;61.04;101003.47;114801;1203;23162;-61
2021/04/14 11:36:34;;;;;;;15.30;1.67;;;;;;;6.22;61.07;101012.92;114707;1200;23127;-62
2021/04/14 11:39:12;;;;;;;9.50;1.50;;;;;;;6.23;61.62;101022.78;114708;1202;24796;-62
2021/04/14 11:41:43;;;;;;;12.45;1.70;;;;;;;6.14;62.89;101022.61;114799;1203;23135;-63
2021/04/14 11:44:23;;;;;;;10.37;1.53;;;;;;;6.00;62.55;101028.47;114944;1200;27932;-62